Observation data for Tulia on 02/22/2019      Previous  Date  Next       Current Mesonet Observations  Soil Data  Daily Summary Page  Observations in Plain Language
KTIS 220600Z 07008KT M01/M05 A2989 RMK A01 T10071047  RH  075%=      5-min Rain = 0
KTIS 220605Z 07008KT M01/M05 A2989 RMK A01 T10061046  RH  075%=      5-min Rain = 0
KTIS 220610Z 08008KT M01/M05 A2989 RMK A01 T10051045  RH  075%=      5-min Rain = 0
KTIS 220615Z 07008KT M01/M05 A299 RMK A01 T10071045  RH  075%=      5-min Rain = 0
KTIS 220620Z 07007KT M01/M05 A299 RMK A01 T10101049  RH  075%=      5-min Rain = 0
KTIS 220625Z 07007KT M01/M05 A299 RMK A01 T10131049  RH  076%=      5-min Rain = 0
KTIS 220630Z 07008KT M01/M05 A299 RMK A01 T10131048  RH  077%=      5-min Rain = 0
KTIS 220635Z 08008KT M01/M05 A299 RMK A01 T10131046  RH  079%=      5-min Rain = 0
KTIS 220640Z 08008KT M01/M04 A299 RMK A01 T10121042  RH  080%=      5-min Rain = 0
KTIS 220645Z 08009KT M01/M04 A299 RMK A01 T10091041  RH  079%=      5-min Rain = 0
KTIS 220650Z 08008KT M01/M04 A299 RMK A01 T10091041  RH  079%=      5-min Rain = 0
KTIS 220655Z 08009KT M01/M04 A299 RMK A01 T10101040  RH  080%=      5-min Rain = 0
KTIS 220700Z 08009KT M01/M04 A299 RMK A01 T10091038  RH  081%=      5-min Rain = 0
KTIS 220705Z 08008KT M01/M04 A299 RMK A01 T10091038  RH  081%=      5-min Rain = 0
KTIS 220710Z 09009KT M01/M04 A299 RMK A01 T10101037  RH  082%=      5-min Rain = 0
KTIS 220715Z 09009KT M01/M04 A299 RMK A01 T10091036  RH  082%=      5-min Rain = 0
KTIS 220720Z 09008KT M01/M04 A299 RMK A01 T10091036  RH  082%=      5-min Rain = 0
KTIS 220725Z 09008KT M01/M04 A2989 RMK A01 T10101036  RH  083%=      5-min Rain = 0
KTIS 220730Z 08008KT M01/M04 A2989 RMK A01 T10111037  RH  083%=      5-min Rain = 0
KTIS 220735Z 09009KT M01/M04 A2989 RMK A01 T10111036  RH  083%=      5-min Rain = 0
KTIS 220740Z 09008KT M01/M04 A2989 RMK A01 T10121036  RH  084%=      5-min Rain = 0
KTIS 220745Z 09006KT M01/M04 A299 RMK A01 T10121036  RH  084%=      5-min Rain = 0
KTIS 220750Z 08005KT M01/M04 A299 RMK A01 T10141037  RH  084%=      5-min Rain = 0
KTIS 220755Z 08005KT M02/M04 A2991 RMK A01 T10151039  RH  084%=      5-min Rain = 0
KTIS 220800Z 08006KT M02/M04 A2991 RMK A01 T10191042  RH  085%=      5-min Rain = 0
KTIS 220805Z 07006KT M02/M04 A2991 RMK A01 T10211043  RH  085%=      5-min Rain = 0
KTIS 220810Z 07005KT M02/M05 A2991 RMK A01 T10231046  RH  085%=      5-min Rain = 0
KTIS 220815Z 07005KT M02/M05 A2992 RMK A01 T10241045  RH  086%=      5-min Rain = 0
KTIS 220820Z 08006KT M02/M04 A2992 RMK A01 T10231042  RH  087%=      5-min Rain = 0
KTIS 220825Z 09006KT M02/M04 A2992 RMK A01 T10221040  RH  088%=      5-min Rain = 0
KTIS 220830Z 09004KT M02/M04 A2993 RMK A01 T10211039  RH  088%=      5-min Rain = 0
KTIS 220835Z 07003KT M02/M04 A2993 RMK A01 T10231041  RH  087%=      5-min Rain = 0
KTIS 220840Z 04006KT M02/M04 A2992 RMK A01 T10241043  RH  087%=      5-min Rain = 0
KTIS 220845Z 03006KT M03/M05 A2992 RMK A01 T10251047  RH  085%=      5-min Rain = 0
KTIS 220850Z 04005KT M03/M05 A2992 RMK A01 T10291053  RH  083%=      5-min Rain = 0
KTIS 220855Z 03003KT M03/M06 A2992 RMK A01 T10321058  RH  083%=      5-min Rain = 0
KTIS 220900Z 04003KT M04/M07 A2992 RMK A01 T10391066  RH  082%=      5-min Rain = 0
KTIS 220905Z 04005KT M04/M07 A2992 RMK A01 T10431067  RH  084%=      5-min Rain = 0
KTIS 220910Z 06006KT M04/M06 A2992 RMK A01 T10411064  RH  084%=      5-min Rain = 0
KTIS 220915Z 07008KT M04/M06 A2992 RMK A01 T10391060  RH  085%=      5-min Rain = 0
KTIS 220920Z 07009KT M04/M06 A2991 RMK A01 T10391060  RH  085%=      5-min Rain = 0
KTIS 220925Z 06007KT M04/M06 A2992 RMK A01 T10401061  RH  086%=      5-min Rain = 0
KTIS 220930Z 05005KT M04/M06 A2992 RMK A01 T10421062  RH  086%=      5-min Rain = 0
KTIS 220935Z 04005KT M04/M06 A2992 RMK A01 T10421062  RH  086%=      5-min Rain = 0
KTIS 220940Z 05007KT M04/M07 A2991 RMK A01 T10441065  RH  085%=      5-min Rain = 0
KTIS 220945Z 06007KT M04/M06 A2991 RMK A01 T10441064  RH  087%=      5-min Rain = 0
KTIS 220950Z 06008KT M04/M06 A2991 RMK A01 T10441062  RH  087%=      5-min Rain = 0
KTIS 220955Z 07007KT M04/M06 A2991 RMK A01 T10441061  RH  088%=      5-min Rain = 0
KTIS 221000Z 07007KT M04/M06 A2991 RMK A01 T10431060  RH  088%=      5-min Rain = 0
KTIS 221005Z 07006KT M04/M05 A2991 RMK A01 T10381052  RH  090%=      5-min Rain = 0
KTIS 221010Z 08006KT M03/M04 A2991 RMK A01 T10281041  RH  091%=      5-min Rain = 0
KTIS 221015Z 09007KT M02/M03 A2991 RMK A01 T10191032  RH  092%=      5-min Rain = 0
KTIS 221020Z 10008KT M01/M03 A2991 RMK A01 T10141026  RH  092%=      5-min Rain = 0
KTIS 221025Z 10007KT M01/M02 A2991 RMK A01 T10111023  RH  092%=      5-min Rain = 0
KTIS 221030Z 10009KT M01/M02 A2991 RMK A01 T10071018  RH  093%=      5-min Rain = 0
KTIS 221035Z 10009KT M00/M01 A2991 RMK A01 T10021013  RH  093%=      5-min Rain = 0
KTIS 221040Z 11010KT M00/M01 A2991 RMK A01 T10011011  RH  094%=      5-min Rain = 0
KTIS 221045Z 11011KT M00/M01 A299 RMK A01 T10011010  RH  094%=      5-min Rain = 0
KTIS 221050Z 11011KT M00/M01 A299 RMK A01 T10011010  RH  095%=      5-min Rain = 0
KTIS 221055Z 11010KT M00/M01 A299 RMK A01 T10011009  RH  095%=      5-min Rain = 0
KTIS 221100Z 11013KT 00/01 A299 RMK A01 T00-000-9  RH  095%=      5-min Rain = 0
KTIS 221105Z 11011KT 00/01 A299 RMK A01 T000000-8  RH  095%=      5-min Rain = 0
KTIS 221110Z 11011KT 00/01 A299 RMK A01 T000000-8  RH  096%=      5-min Rain = 0
KTIS 221115Z 11011KT 00/01 A299 RMK A01 T000000-8  RH  096%=      5-min Rain = 0
KTIS 221120Z 11010KT 00/M01 A299 RMK A01 T00011007  RH  096%=      5-min Rain = 0
KTIS 221125Z 11009KT 00/M01 A299 RMK A01 T00011007  RH  096%=      5-min Rain = 0
KTIS 221130Z 11009KT 00/M01 A299 RMK A01 T00011006  RH  096%=      5-min Rain = 0
KTIS 221135Z 10010KT 00/M01 A299 RMK A01 T00011006  RH  096%=      5-min Rain = 0
KTIS 221140Z 10010KT 00/M01 A299 RMK A01 T00011006  RH  096%=      5-min Rain = 0
KTIS 221145Z 10010KT 00/M01 A299 RMK A01 T00011006  RH  096%=      5-min Rain = 0
KTIS 221150Z 10011KT 00/M01 A299 RMK A01 T00011006  RH  096%=      5-min Rain = 0
KTIS 221155Z 10011KT 00/M01 A299 RMK A01 T00011006  RH  096%=      5-min Rain = 0
KTIS 221200Z 10010KT 00/M01 A299 RMK A01 T00021005  RH  096%=      5-min Rain = 0
KTIS 221205Z 10010KT 00/M01 A299 RMK A01 T00021005  RH  096%=      5-min Rain = 0
KTIS 221210Z 11011KT 00/M01 A2989 RMK A01 T00011006  RH  096%=      5-min Rain = 0
KTIS 221215Z 10012KT 00/M01 A2989 RMK A01 T00011006  RH  096%=      5-min Rain = 0
KTIS 221220Z 11012KT 00/M01 A2989 RMK A01 T00011006  RH  096%=      5-min Rain = 0
KTIS 221225Z 11013KT 00/M01 A2989 RMK A01 T00011005  RH  096%=      5-min Rain = 0
KTIS 221230Z 11012KT 00/M01 A299 RMK A01 T00011005  RH  096%=      5-min Rain = 0
KTIS 221235Z 11011KT 00/M01 A299 RMK A01 T00011005  RH  097%=      5-min Rain = 0
KTIS 221240Z 11010KT 00/M01 A2991 RMK A01 T00021005  RH  097%=      5-min Rain = 0
KTIS 221245Z 11009KT 00/M01 A2991 RMK A01 T00021005  RH  097%=      5-min Rain = 0
KTIS 221250Z 11008KT 00/M01 A2991 RMK A01 T00021005  RH  097%=      5-min Rain = 0
KTIS 221255Z 11010KT 00/M01 A2991 RMK A01 T00011005  RH  097%=      5-min Rain = 0
KTIS 221300Z 11011KT 00/M01 A2991 RMK A01 T00011005  RH  097%=      5-min Rain = 0
KTIS 221305Z 11012KT 00/M01 A2991 RMK A01 T00011005  RH  097%=      5-min Rain = 0
KTIS 221310Z 11012KT 00/01 A2992 RMK A01 T00-000-6  RH  097%=      5-min Rain = 0
KTIS 221315Z 12011KT 00/M01 A2992 RMK A01 T00011005  RH  097%=      5-min Rain = 0
KTIS 221320Z 12011KT 00/M00 A2992 RMK A01 T00021004  RH  097%=      5-min Rain = 0
KTIS 221325Z 12011KT 00/M00 A2992 RMK A01 T00021004  RH  097%=      5-min Rain = 0
KTIS 221330Z 12010KT 00/M00 A2992 RMK A01 T00031003  RH  097%=      5-min Rain = 0
KTIS 221335Z 12012KT 00/M00 A2992 RMK A01 T00031002  RH  097%=      5-min Rain = 0
KTIS 221340Z 12013KT 00/M00 A2992 RMK A01 T00041001  RH  097%=      5-min Rain = 0
KTIS 221345Z 12014KT 01/M00 A2992 RMK A01 T00051001  RH  097%=      5-min Rain = 0
KTIS 221350Z 12015KT 01/M00 A2992 RMK A01 T00051001  RH  097%=      5-min Rain = 0
KTIS 221355Z 12012KT 01/M00 A2993 RMK A01 T00051001  RH  097%=      5-min Rain = 0
KTIS 221400Z 12012G17KT 01/M00 A2993 RMK A01 T00051001  RH  097%=      5-min Rain = 0
KTIS 221405Z 12013KT 01/M00 A2993 RMK A01 T00051001  RH  097%=      5-min Rain = 0
KTIS 221410Z 12012KT 00/M00 A2994 RMK A01 T00041001  RH  097%=      5-min Rain = 0
KTIS 221415Z 12011KT 00/M00 A2994 RMK A01 T00031002  RH  097%=      5-min Rain = 0
KTIS 221420Z 12011KT 00/M00 A2994 RMK A01 T00031002  RH  097%=      5-min Rain = 0
KTIS 221425Z 13009KT 00/M00 A2995 RMK A01 T00031002  RH  097%=      5-min Rain = 0
KTIS 221430Z 12010KT 00/M00 A2995 RMK A01 T00031002  RH  097%=      5-min Rain = 0
KTIS 221435Z 12010KT 00/M00 A2995 RMK A01 T00041001  RH  097%=      5-min Rain = 0
KTIS 221440Z 12008KT 01/M00 A2995 RMK A01 T00051001  RH  097%=      5-min Rain = 0
KTIS 221445Z 11009KT 01/00 A2996 RMK A01 T000500-0  RH  097%=      5-min Rain = 0
KTIS 221450Z 11009KT 01/00 A2996 RMK A01 T00050000  RH  097%=      5-min Rain = 0
KTIS 221455Z 11008KT 01/00 A2996 RMK A01 T00060001  RH  097%=      5-min Rain = 0
KTIS 221500Z 10008KT 01/00 A2996 RMK A01 T00060001  RH  097%=      5-min Rain = 0
KTIS 221505Z 10007KT 01/00 A2996 RMK A01 T00070002  RH  097%=      5-min Rain = 0
KTIS 221510Z 10007KT 01/00 A2996 RMK A01 T00070002  RH  097%=      5-min Rain = 0
KTIS 221515Z 10006KT 01/00 A2997 RMK A01 T00080003  RH  097%=      5-min Rain = 0
KTIS 221520Z 10007KT 01/00 A2997 RMK A01 T00100004  RH  098%=      5-min Rain = 0
KTIS 221525Z 10008KT 01/01 A2997 RMK A01 T00100005  RH  098%=      5-min Rain = 0
KTIS 221530Z 10007KT 01/01 A2997 RMK A01 T00120006  RH  098%=      5-min Rain = 0
KTIS 221535Z 10007KT 01/01 A2997 RMK A01 T00120007  RH  098%=      5-min Rain = 0
KTIS 221540Z 10007KT 01/01 A2997 RMK A01 T00130008  RH  098%=      5-min Rain = 0
KTIS 221545Z 10007KT 01/01 A2997 RMK A01 T00140009  RH  098%=      5-min Rain = 0
KTIS 221550Z 11007KT 02/01 A2997 RMK A01 T00150010  RH  098%=      5-min Rain = 0
KTIS 221555Z 11009KT 02/01 A2997 RMK A01 T00160011  RH  098%=      5-min Rain = 0
KTIS 221600Z 11009KT 02/01 A2997 RMK A01 T00170012  RH  098%=      5-min Rain = 0
KTIS 221605Z 12008KT 02/01 A2997 RMK A01 T00190013  RH  098%=      5-min Rain = 0
KTIS 221610Z 11007KT 02/01 A2997 RMK A01 T00190013  RH  098%=      5-min Rain = 0
KTIS 221615Z 11008KT 02/02 A2997 RMK A01 T00210015  RH  098%=      5-min Rain = 0
KTIS 221620Z 12008KT 02/02 A2997 RMK A01 T00210016  RH  098%=      5-min Rain = 0
KTIS 221625Z 12007KT 02/02 A2996 RMK A01 T00240018  RH  098%=      5-min Rain = 0
KTIS 221630Z 12007KT 03/02 A2996 RMK A01 T00250020  RH  098%=      5-min Rain = 0
KTIS 221635Z 12008KT 03/02 A2996 RMK A01 T00250020  RH  098%=      5-min Rain = 0
KTIS 221640Z 13009KT 03/02 A2996 RMK A01 T00260020  RH  098%=      5-min Rain = 0
KTIS 221645Z 12008KT 03/02 A2996 RMK A01 T00270021  RH  098%=      5-min Rain = 0
KTIS 221650Z 12007KT 03/02 A2996 RMK A01 T00290024  RH  098%=      5-min Rain = 0
KTIS 221655Z 12007KT 03/02 A2996 RMK A01 T00280023  RH  098%=      5-min Rain = 0
KTIS 221700Z 12008KT 03/02 A2995 RMK A01 T00290023  RH  098%=      5-min Rain = 0
KTIS 221705Z 12008KT 03/02 A2995 RMK A01 T00300024  RH  098%=      5-min Rain = 0
KTIS 221710Z 13008KT 03/03 A2995 RMK A01 T00310025  RH  098%=      5-min Rain = 0
KTIS 221715Z 13007KT 03/03 A2995 RMK A01 T00330027  RH  098%=      5-min Rain = 0
KTIS 221720Z 13008KT 04/03 A2995 RMK A01 T00360030  RH  098%=      5-min Rain = 0
KTIS 221725Z 14008KT 04/03 A2995 RMK A01 T00370031  RH  098%=      5-min Rain = 0
KTIS 221730Z 14008KT 04/03 A2994 RMK A01 T00400034  RH  098%=      5-min Rain = 0
KTIS 221735Z 14008KT 04/04 A2994 RMK A01 T00410035  RH  097%=      5-min Rain = 0
KTIS 221740Z 14008KT 04/04 A2994 RMK A01 T00420035  RH  097%=      5-min Rain = 0
KTIS 221745Z 14008KT 04/03 A2994 RMK A01 T00410034  RH  097%=      5-min Rain = 0
KTIS 221750Z 14008KT 04/04 A2994 RMK A01 T00440037  RH  097%=      5-min Rain = 0
KTIS 221755Z 14007KT 05/04 A2994 RMK A01 T00450037  RH  096%=      5-min Rain = 0
KTIS 221800Z 15008KT 05/04 A2993 RMK A01 T00470038  RH  095%=      5-min Rain = 0
KTIS 221805Z 15008KT 05/04 A2993 RMK A01 T00500038  RH  094%=      5-min Rain = 0
KTIS 221810Z 15009KT 05/04 A2993 RMK A01 T00540038  RH  091%=      5-min Rain = 0
KTIS 221815Z 15008KT 06/04 A2993 RMK A01 T00560037  RH  089%=      5-min Rain = 0
KTIS 221820Z 15008G13KT 06/04 A2992 RMK A01 T00590036  RH  087%=      5-min Rain = 0
KTIS 221825Z 16009KT 06/03 A2992 RMK A01 T00610034  RH  085%=      5-min Rain = 0
KTIS 221830Z 14008KT 06/04 A2991 RMK A01 T00630035  RH  084%=      5-min Rain = 0
KTIS 221835Z 16008KT 06/03 A2991 RMK A01 T00640033  RH  082%=      5-min Rain = 0
KTIS 221840Z 17010KT 07/03 A2991 RMK A01 T00660032  RH  081%=      5-min Rain = 0
KTIS 221845Z 17008KT 07/03 A2991 RMK A01 T00680030  RH  078%=      5-min Rain = 0
KTIS 221850Z 17008KT 07/03 A299 RMK A01 T00680031  RH  079%=      5-min Rain = 0
KTIS 221855Z 18009KT 07/03 A299 RMK A01 T00710029  RH  076%=      5-min Rain = 0
KTIS 221900Z 18009G18KT 07/03 A299 RMK A01 T00720028  RH  075%=      5-min Rain = 0
KTIS 221905Z 17009KT 08/03 A2989 RMK A01 T00760032  RH  075%=      5-min Rain = 0
KTIS 221910Z 19008KT 08/03 A2988 RMK A01 T00820028  RH  070%=      5-min Rain = 0
KTIS 221915Z 17009KT 08/03 A2988 RMK A01 T00830028  RH  070%=      5-min Rain = 0
KTIS 221920Z 14007KT 08/03 A2988 RMK A01 T00810031  RH  072%=      5-min Rain = 0
KTIS 221925Z 19007G14KT 08/03 A2988 RMK A01 T00810027  RH  070%=      5-min Rain = 0
KTIS 221930Z 19009KT 09/03 A2987 RMK A01 T00870027  RH  067%=      5-min Rain = 0
KTIS 221935Z 18007G12KT 09/03 A2987 RMK A01 T00860027  RH  068%=      5-min Rain = 0
KTIS 221940Z 19006G12KT 09/03 A2986 RMK A01 T00920028  RH  065%=      5-min Rain = 0
KTIS 221945Z 16007KT 10/03 A2986 RMK A01 T00960032  RH  065%=      5-min Rain = 0
KTIS 221950Z 17009KT 10/03 A2986 RMK A01 T00980028  RH  063%=      5-min Rain = 0
KTIS 221955Z 16007G12KT 10/03 A2985 RMK A01 T00960028  RH  064%=      5-min Rain = 0
KTIS 222000Z 17008KT 10/03 A2985 RMK A01 T00980026  RH  062%=      5-min Rain = 0
KTIS 222005Z 16007G12KT 10/03 A2985 RMK A01 T00970028  RH  063%=      5-min Rain = 0
KTIS 222010Z 15009KT 10/03 A2984 RMK A01 T01000027  RH  061%=      5-min Rain = 0
KTIS 222015Z 16009G15KT 10/03 A2984 RMK A01 T01020027  RH  061%=      5-min Rain = 0
KTIS 222020Z 16008KT 10/03 A2984 RMK A01 T01040025  RH  059%=      5-min Rain = 0
KTIS 222025Z 17007KT 11/03 A2984 RMK A01 T01050026  RH  059%=      5-min Rain = 0
KTIS 222030Z 16007G12KT 11/02 A2984 RMK A01 T01050024  RH  058%=      5-min Rain = 0
KTIS 222035Z 17007KT 11/03 A2983 RMK A01 T01070025  RH  058%=      5-min Rain = 0
KTIS 222040Z 17007KT 11/02 A2983 RMK A01 T01100024  RH  056%=      5-min Rain = 0
KTIS 222045Z 16006KT 11/02 A2983 RMK A01 T01120024  RH  056%=      5-min Rain = 0
KTIS 222050Z 17008KT 11/02 A2982 RMK A01 T01120023  RH  055%=      5-min Rain = 0
KTIS 222055Z 16008KT 12/03 A2982 RMK A01 T01150025  RH  055%=      5-min Rain = 0
KTIS 222100Z 17008KT 12/02 A2982 RMK A01 T01150023  RH  054%=      5-min Rain = 0
KTIS 222105Z 16008KT 12/03 A2982 RMK A01 T01180027  RH  055%=      5-min Rain = 0
KTIS 222110Z 14009KT 12/03 A2981 RMK A01 T01210029  RH  054%=      5-min Rain = 0
KTIS 222115Z 14009G15KT 12/03 A2981 RMK A01 T01240026  RH  052%=      5-min Rain = 0
KTIS 222120Z 14009KT 12/02 A2981 RMK A01 T01210022  RH  052%=      5-min Rain = 0
KTIS 222125Z 15008KT 12/02 A298 RMK A01 T01240024  RH  051%=      5-min Rain = 0
KTIS 222130Z 15010KT 13/03 A298 RMK A01 T01260027  RH  052%=      5-min Rain = 0
KTIS 222135Z 13011KT 13/03 A298 RMK A01 T01250026  RH  052%=      5-min Rain = 0
KTIS 222140Z 14010KT 13/03 A298 RMK A01 T01260025  RH  051%=      5-min Rain = 0
KTIS 222145Z 13009KT 13/03 A298 RMK A01 T01280027  RH  051%=      5-min Rain = 0
KTIS 222150Z 14011KT 13/03 A298 RMK A01 T01290030  RH  052%=      5-min Rain = 0
KTIS 222155Z 13011KT 13/03 A298 RMK A01 T01280027  RH  051%=      5-min Rain = 0
KTIS 222200Z 13012KT 13/03 A298 RMK A01 T01270027  RH  051%=      5-min Rain = 0
KTIS 222205Z 15012KT 13/03 A298 RMK A01 T01280025  RH  050%=      5-min Rain = 0
KTIS 222210Z 13012G17KT 13/03 A298 RMK A01 T01290026  RH  050%=      5-min Rain = 0
KTIS 222215Z 13011KT 13/03 A298 RMK A01 T01290028  RH  051%=      5-min Rain = 0
KTIS 222220Z 13012KT 13/03 A298 RMK A01 T01290030  RH  052%=      5-min Rain = 0
KTIS 222225Z 12013G18KT 13/03 A2979 RMK A01 T01280028  RH  052%=      5-min Rain = 0
KTIS 222230Z 13012KT 13/03 A298 RMK A01 T01290031  RH  052%=      5-min Rain = 0
KTIS 222235Z 13013KT 13/03 A298 RMK A01 T01300032  RH  052%=      5-min Rain = 0
KTIS 222240Z 12014KT 13/03 A298 RMK A01 T01260034  RH  054%=      5-min Rain = 0
KTIS 222245Z 11016KT 12/04 A298 RMK A01 T01190039  RH  059%=      5-min Rain = 0
KTIS 222250Z 11017KT 11/04 A298 RMK A01 T01140042  RH  062%=      5-min Rain = 0
KTIS 222255Z 12017KT 11/04 A298 RMK A01 T01090041  RH  064%=      5-min Rain = 0
KTIS 222300Z 11018KT 10/04 A2979 RMK A01 T01010040  RH  067%=      5-min Rain = 0
KTIS 222305Z 11017KT 09/04 A2979 RMK A01 T00940039  RH  070%=      5-min Rain = 0
KTIS 222310Z 11016G21KT 09/04 A2979 RMK A01 T00940040  RH  070%=      5-min Rain = 0
KTIS 222315Z 11016KT 09/04 A298 RMK A01 T00910039  RH  071%=      5-min Rain = 0
KTIS 222320Z 11016KT 09/04 A298 RMK A01 T00880038  RH  072%=      5-min Rain = 0
KTIS 222325Z 12017KT 09/04 A298 RMK A01 T00880038  RH  072%=      5-min Rain = 0
KTIS 222330Z 11017KT 08/04 A298 RMK A01 T00840037  RH  074%=      5-min Rain = 0
KTIS 222335Z 11016KT 08/04 A2979 RMK A01 T00810037  RH  075%=      5-min Rain = 0
KTIS 222340Z 11017KT 08/04 A298 RMK A01 T00770035  RH  076%=      5-min Rain = 0
KTIS 222345Z 11016KT 07/03 A298 RMK A01 T00730034  RH  078%=      5-min Rain = 0
KTIS 222350Z 11016KT 07/03 A298 RMK A01 T00730034  RH  078%=      5-min Rain = 0
KTIS 222355Z 11015KT 07/03 A298 RMK A01 T00700033  RH  078%=      5-min Rain = 0
KTIS 230000Z 11015KT 07/03 A298 RMK A01 T00680032  RH  079%=      5-min Rain = 0
KTIS 230005Z 11015KT 07/03 A298 RMK A01 T00670032  RH  079%=      5-min Rain = 0
KTIS 230010Z 11016KT 06/03 A298 RMK A01 T00640031  RH  080%=      5-min Rain = 0
KTIS 230015Z 11017KT 06/03 A298 RMK A01 T00600030  RH  082%=      5-min Rain = 0
KTIS 230020Z 10015KT 06/03 A298 RMK A01 T00580029  RH  083%=      5-min Rain = 0
KTIS 230025Z 11015KT 06/03 A298 RMK A01 T00560028  RH  083%=      5-min Rain = 0
KTIS 230030Z 11015KT 05/03 A2981 RMK A01 T00530027  RH  084%=      5-min Rain = 0
KTIS 230035Z 11013KT 05/03 A2981 RMK A01 T00510025  RH  085%=      5-min Rain = 0
KTIS 230040Z 11012KT 05/03 A2981 RMK A01 T00510025  RH  085%=      5-min Rain = 0
KTIS 230045Z 11012KT 05/03 A2981 RMK A01 T00520026  RH  085%=      5-min Rain = 0
KTIS 230050Z 11015KT 06/03 A2981 RMK A01 T00550028  RH  084%=      5-min Rain = 0
KTIS 230055Z 12015KT 06/03 A2981 RMK A01 T00570030  RH  084%=      5-min Rain = 0
KTIS 230100Z 12015KT 06/03 A2981 RMK A01 T00570030  RH  084%=      5-min Rain = 0
KTIS 230105Z 11015KT 06/03 A298 RMK A01 T00570030  RH  084%=      5-min Rain = 0
KTIS 230110Z 11014G19KT 06/03 A298 RMK A01 T00580030  RH  084%=      5-min Rain = 0
KTIS 230115Z 10015KT 06/03 A298 RMK A01 T00570031  RH  085%=      5-min Rain = 0
KTIS 230120Z 10014KT 06/03 A2979 RMK A01 T00560030  RH  085%=      5-min Rain = 0
KTIS 230125Z 10015KT 06/03 A2979 RMK A01 T00550030  RH  085%=      5-min Rain = 0
KTIS 230130Z 10015KT 05/03 A2979 RMK A01 T00540030  RH  086%=      5-min Rain = 0
KTIS 230135Z 11015KT 05/03 A2979 RMK A01 T00530029  RH  086%=      5-min Rain = 0
KTIS 230140Z 11014KT 05/03 A2979 RMK A01 T00530029  RH  086%=      5-min Rain = 0
KTIS 230145Z 10015G20KT 05/03 A2979 RMK A01 T00510028  RH  087%=      5-min Rain = 0
KTIS 230150Z 10015KT 05/03 A2978 RMK A01 T00500028  RH  088%=      5-min Rain = 0
KTIS 230155Z 10016KT 05/03 A2978 RMK A01 T00480028  RH  088%=      5-min Rain = 0
KTIS 230200Z 11015KT 05/03 A2978 RMK A01 T00470027  RH  088%=      5-min Rain = 0
KTIS 230205Z 11015KT 05/03 A2978 RMK A01 T00460027  RH  089%=      5-min Rain = 0
KTIS 230210Z 10016KT 05/03 A2978 RMK A01 T00460027  RH  089%=      5-min Rain = 0
KTIS 230215Z 10017KT 05/03 A2978 RMK A01 T00450026  RH  089%=      5-min Rain = 0
KTIS 230220Z 11017KT 04/03 A2979 RMK A01 T00440026  RH  090%=      5-min Rain = 0
KTIS 230225Z 10017KT 04/03 A2978 RMK A01 T00430025  RH  089%=      5-min Rain = 0
KTIS 230230Z 10017G22KT 04/03 A2977 RMK A01 T00430025  RH  090%=      5-min Rain = 0
KTIS 230235Z 11018KT 04/02 A2977 RMK A01 T00420024  RH  090%=      5-min Rain = 0
KTIS 230240Z 10018KT 04/02 A2977 RMK A01 T00420024  RH  090%=      5-min Rain = 0
KTIS 230245Z 11017KT 04/02 A2977 RMK A01 T00410024  RH  090%=      5-min Rain = 0
KTIS 230250Z 10017KT 04/02 A2977 RMK A01 T00410024  RH  090%=      5-min Rain = 0
KTIS 230255Z 10018KT 04/02 A2977 RMK A01 T00410024  RH  090%=      5-min Rain = 0
KTIS 230300Z 11018KT 04/02 A2977 RMK A01 T00400024  RH  091%=      5-min Rain = 0
KTIS 230305Z 10017KT 04/02 A2977 RMK A01 T00400024  RH  091%=      5-min Rain = 0
KTIS 230310Z 11017KT 04/02 A2977 RMK A01 T00400024  RH  091%=      5-min Rain = 0
KTIS 230315Z 11018KT 04/03 A2977 RMK A01 T00400025  RH  092%=      5-min Rain = 0
KTIS 230320Z 11018G23KT 04/03 A2977 RMK A01 T00400026  RH  092%=      5-min Rain = 0
KTIS 230325Z 11016G21KT 04/03 A2977 RMK A01 T00400026  RH  092%=      5-min Rain = 0
KTIS 230330Z 11017G23KT 04/03 A2977 RMK A01 T00400027  RH  092%=      5-min Rain = 0
KTIS 230335Z 11017KT 04/03 A2977 RMK A01 T00400027  RH  093%=      5-min Rain = 0
KTIS 230340Z 11014KT 04/03 A2978 RMK A01 T00410028  RH  093%=      5-min Rain = 0
KTIS 230345Z 12015KT 04/03 A2978 RMK A01 T00420029  RH  093%=      5-min Rain = 0
KTIS 230350Z 13014KT 04/03 A2979 RMK A01 T00410029  RH  093%=      5-min Rain = 0
KTIS 230355Z 12013KT 04/03 A2979 RMK A01 T00420030  RH  094%=      5-min Rain = 0
KTIS 230400Z 12012KT 04/03 A2979 RMK A01 T00420031  RH  094%=      5-min Rain = 0
KTIS 230405Z 12010KT 04/03 A2979 RMK A01 T00420032  RH  095%=      5-min Rain = 0
KTIS 230410Z 12011KT 04/03 A2979 RMK A01 T00420033  RH  095%=      5-min Rain = 0
KTIS 230415Z 10009KT 04/03 A2977 RMK A01 T00420033  RH  096%=      5-min Rain = 0
KTIS 230420Z 09010KT 04/03 A2977 RMK A01 T00420034  RH  096%=      5-min Rain = 0
KTIS 230425Z 10011KT 04/04 A2977 RMK A01 T00430035  RH  096%=      5-min Rain = 0
KTIS 230430Z 10011KT 04/04 A2976 RMK A01 T00430035  RH  097%=      5-min Rain = 0
KTIS 230435Z 10009KT 04/04 A2976 RMK A01 T00430035  RH  097%=      5-min Rain = 0
KTIS 230440Z 10009KT 04/04 A2976 RMK A01 T00430036  RH  097%=      5-min Rain = 0
KTIS 230445Z 10008KT 04/04 A2976 RMK A01 T00430036  RH  097%=      5-min Rain = 0
KTIS 230450Z 12006KT 04/04 A2976 RMK A01 T00440037  RH  097%=      5-min Rain = 0
KTIS 230455Z 15005KT 04/04 A2977 RMK A01 T00440037  RH  097%=      5-min Rain = 0
KTIS 230500Z 14006KT 05/04 A2977 RMK A01 T00450038  RH  097%=      5-min Rain = 0
KTIS 230505Z 15007KT 05/04 A2978 RMK A01 T00460039  RH  097%=      5-min Rain = 0
KTIS 230510Z 12008KT 05/04 A2977 RMK A01 T00460039  RH  097%=      5-min Rain = 0
KTIS 230515Z 13010KT 05/04 A2977 RMK A01 T00460039  RH  097%=      5-min Rain = 0
KTIS 230520Z 12009KT 05/04 A2976 RMK A01 T00460039  RH  097%=      5-min Rain = 0
KTIS 230525Z 12010KT 05/04 A2976 RMK A01 T00460039  RH  097%=      5-min Rain = 0
KTIS 230530Z 11011KT 05/04 A2975 RMK A01 T00460039  RH  097%=      5-min Rain = 0
KTIS 230535Z 10009KT 05/04 A2974 RMK A01 T00460039  RH  097%=      5-min Rain = 0
KTIS 230540Z 10010KT 05/04 A2974 RMK A01 T00460039  RH  097%=      5-min Rain = 0
KTIS 230545Z 10011KT 05/04 A2973 RMK A01 T00450038  RH  097%=      5-min Rain = 0
KTIS 230550Z 09010KT 04/04 A2973 RMK A01 T00440038  RH  097%=      5-min Rain = 0
KTIS 230555Z 08012KT 04/04 A2972 RMK A01 T00440038  RH  097%=      5-min Rain = 0

Page generated in 0.0337 seconds.